TimeCDT,TemperatureF,Dew PointF,Humidity,Sea Level PressureIn,VisibilityMPH,Wind Direction,Wind SpeedMPH,Gust SpeedMPH,PrecipitationIn,Events,Conditions,WindDirDegrees,DateUTC
12:17 AM,64.6,58.3,80,29.98,10.0,Calm,Calm,-,N/A,,Clear,0,2013-07-04 05:17:00
12:36 AM,62.8,58.3,85,29.98,10.0,Calm,Calm,-,N/A,,Clear,0,2013-07-04 05:36:00
12:56 AM,63.0,58.8,86,29.98,10.0,Calm,Calm,-,N/A,,Clear,0,2013-07-04 05:56:00
1:17 AM,65.3,58.1,77,29.97,10.0,SSE,3.5,-,N/A,,Clear,150,2013-07-04 06:17:00
1:36 AM,66.2,58.5,76,29.97,10.0,Calm,Calm,-,N/A,,Clear,0,2013-07-04 06:36:00
1:57 AM,65.3,59.0,80,29.97,10.0,Calm,Calm,-,N/A,,Clear,0,2013-07-04 06:57:00
2:17 AM,64.9,59.2,82,29.97,10.0,Calm,Calm,-,N/A,,Clear,0,2013-07-04 07:17:00
2:36 AM,64.0,59.4,85,29.96,10.0,Calm,Calm,-,N/A,,Clear,0,2013-07-04 07:36:00
2:56 AM,64.6,59.4,83,29.95,10.0,SSE,3.5,-,N/A,,Clear,150,2013-07-04 07:56:00
3:17 AM,64.4,59.9,85,29.95,10.0,Calm,Calm,-,N/A,,Clear,0,2013-07-04 08:17:00
3:36 AM,64.4,59.0,83,29.95,10.0,Calm,Calm,-,N/A,,Clear,0,2013-07-04 08:36:00
3:56 AM,63.0,58.5,85,29.95,10.0,Calm,Calm,-,N/A,,Clear,0,2013-07-04 08:56:00
4:16 AM,63.7,59.0,85,29.95,10.0,SSE,3.5,-,N/A,,Clear,150,2013-07-04 09:16:00
4:37 AM,63.9,58.8,84,29.94,10.0,Calm,Calm,-,N/A,,Clear,0,2013-07-04 09:37:00
4:56 AM,63.9,58.5,83,29.95,10.0,SSE,3.5,-,N/A,,Clear,160,2013-07-04 09:56:00
5:16 AM,63.5,58.5,84,29.95,10.0,SSE,3.5,-,N/A,,Clear,160,2013-07-04 10:16:00
5:37 AM,63.1,58.5,85,29.95,10.0,South,3.5,-,N/A,,Clear,170,2013-07-04 10:37:00
5:56 AM,63.3,58.6,85,29.95,10.0,SSE,4.6,-,N/A,,Scattered Clouds,160,2013-07-04 10:56:00
6:16 AM,63.5,59.0,85,29.95,10.0,SSE,3.5,-,N/A,,Scattered Clouds,160,2013-07-04 11:16:00
6:36 AM,63.9,59.4,85,29.95,10.0,SSE,3.5,-,N/A,,Scattered Clouds,160,2013-07-04 11:36:00
6:56 AM,64.4,59.9,85,29.95,10.0,South,3.5,-,N/A,,Clear,170,2013-07-04 11:56:00
7:17 AM,65.8,61.0,84,29.95,10.0,South,3.5,-,N/A,,Scattered Clouds,170,2013-07-04 12:17:00
7:37 AM,65.8,61.0,84,29.96,10.0,South,4.6,-,N/A,,Scattered Clouds,170,2013-07-04 12:37:00
7:56 AM,67.3,61.5,82,29.96,10.0,South,5.8,-,N/A,,Scattered Clouds,180,2013-07-04 12:56:00
8:17 AM,68.7,62.2,80,29.95,10.0,South,3.5,-,N/A,,Clear,180,2013-07-04 13:17:00
8:37 AM,70.7,62.2,75,29.95,10.0,SSW,3.5,-,N/A,,Clear,200,2013-07-04 13:37:00
8:56 AM,71.6,62.4,73,29.95,10.0,Calm,Calm,-,N/A,,Clear,0,2013-07-04 13:56:00
9:16 AM,73.4,62.6,69,29.95,10.0,South,3.5,-,N/A,,Clear,170,2013-07-04 14:16:00
9:37 AM,75.0,63.1,66,29.95,10.0,South,5.8,-,N/A,,Clear,170,2013-07-04 14:37:00
9:56 AM,76.1,63.3,64,29.94,10.0,South,5.8,-,N/A,,Clear,180,2013-07-04 14:56:00
10:16 AM,77.0,63.1,62,29.94,10.0,South,3.5,-,N/A,,Clear,180,2013-07-04 15:16:00
10:37 AM,78.1,62.8,59,29.93,10.0,South,4.6,-,N/A,,Clear,170,2013-07-04 15:37:00
10:56 AM,79.2,63.3,58,29.93,10.0,SSE,5.8,-,N/A,,Clear,160,2013-07-04 15:56:00
11:17 AM,80.8,64.9,58,29.93,10.0,South,6.9,-,N/A,,Clear,190,2013-07-04 16:17:00
11:36 AM,81.5,64.2,56,29.93,10.0,SSE,6.9,-,N/A,,Clear,160,2013-07-04 16:36:00
11:57 AM,82.6,65.1,55,29.92,10.0,SSE,5.8,-,N/A,,Clear,150,2013-07-04 16:57:00
12:16 PM,83.5,63.3,50,29.92,10.0,South,8.1,-,N/A,,Clear,180,2013-07-04 17:16:00
12:36 PM,84.6,63.5,49,29.92,10.0,South,5.8,-,N/A,,Clear,180,2013-07-04 17:36:00
12:56 PM,85.1,64.0,49,29.92,10.0,South,8.1,-,N/A,,Clear,190,2013-07-04 17:56:00
1:16 PM,84.9,61.3,45,29.91,10.0,South,6.9,-,N/A,,Clear,170,2013-07-04 18:16:00
1:36 PM,86.0,61.2,43,29.91,10.0,SSW,5.8,-,N/A,,Clear,210,2013-07-04 18:36:00
1:57 PM,86.5,59.0,39,29.90,10.0,South,8.1,-,N/A,,Clear,180,2013-07-04 18:57:00
2:16 PM,86.7,58.1,38,29.90,10.0,South,8.1,21.9,N/A,,Clear,180,2013-07-04 19:16:00
2:36 PM,87.6,58.3,37,29.89,10.0,South,11.5,-,N/A,,Clear,180,2013-07-04 19:36:00
2:57 PM,87.8,58.1,36,29.89,10.0,South,6.9,-,N/A,,Clear,170,2013-07-04 19:57:00
3:17 PM,88.0,58.3,36,29.89,10.0,South,10.4,-,N/A,,Clear,180,2013-07-04 20:17:00
3:36 PM,87.8,56.3,34,29.88,10.0,South,11.5,18.4,N/A,,Scattered Clouds,170,2013-07-04 20:36:00
3:56 PM,88.2,59.0,37,29.88,10.0,South,4.6,-,N/A,,Scattered Clouds,190,2013-07-04 20:56:00
4:17 PM,88.0,57.6,36,29.88,10.0,South,9.2,16.1,N/A,,Clear,180,2013-07-04 21:17:00
4:36 PM,88.7,56.3,33,29.88,10.0,South,9.2,-,N/A,,Clear,180,2013-07-04 21:36:00
4:56 PM,88.2,57.7,36,29.87,10.0,South,5.8,16.1,N/A,,Clear,190,2013-07-04 21:56:00
5:16 PM,87.3,55.8,34,29.87,10.0,South,6.9,-,N/A,,Clear,180,2013-07-04 22:16:00
5:37 PM,88.0,56.7,34,29.87,10.0,South,5.8,-,N/A,,Clear,180,2013-07-04 22:37:00
5:56 PM,87.3,54.9,33,29.87,10.0,South,5.8,17.3,N/A,,Clear,170,2013-07-04 22:56:00
6:17 PM,86.4,56.3,36,29.87,10.0,South,8.1,-,N/A,,Clear,180,2013-07-04 23:17:00
6:36 PM,86.0,56.5,36,29.86,10.0,South,5.8,-,N/A,,Clear,180,2013-07-04 23:36:00
6:57 PM,85.5,56.8,38,29.86,10.0,South,5.8,-,N/A,,Clear,170,2013-07-04 23:57:00
7:16 PM,84.6,57.0,39,29.86,10.0,South,5.8,-,N/A,,Clear,170,2013-07-05 00:16:00
7:37 PM,83.7,57.4,41,29.86,10.0,South,4.6,-,N/A,,Clear,170,2013-07-05 00:37:00
7:56 PM,82.8,57.6,42,29.86,10.0,South,5.8,-,N/A,,Clear,170,2013-07-05 00:56:00
8:16 PM,81.9,57.0,43,29.86,10.0,South,5.8,-,N/A,,Clear,170,2013-07-05 01:16:00
8:37 PM,81.0,56.7,43,29.86,10.0,SSE,4.6,-,N/A,,Clear,160,2013-07-05 01:37:00
8:56 PM,79.7,57.2,46,29.86,10.0,South,3.5,-,N/A,,Clear,170,2013-07-05 01:56:00
9:17 PM,78.3,57.6,49,29.86,10.0,South,3.5,-,N/A,,Clear,170,2013-07-05 02:17:00
9:37 PM,77.9,58.1,50,29.86,10.0,South,3.5,-,N/A,,Clear,170,2013-07-05 02:37:00
9:57 PM,77.2,57.7,51,29.87,10.0,South,4.6,-,N/A,,Clear,170,2013-07-05 02:57:00
10:16 PM,76.6,58.3,53,29.87,7.0,South,3.5,-,N/A,,Clear,180,2013-07-05 03:16:00
10:37 PM,75.7,58.3,55,29.88,10.0,South,3.5,-,N/A,,Clear,170,2013-07-05 03:37:00
10:56 PM,75.4,58.5,56,29.88,10.0,South,4.6,-,N/A,,Clear,170,2013-07-05 03:56:00
11:16 PM,75.2,58.3,56,29.88,10.0,South,4.6,-,N/A,,Clear,170,2013-07-05 04:16:00
11:37 PM,74.7,58.3,57,29.88,10.0,South,5.8,-,N/A,,Clear,180,2013-07-05 04:37:00
11:56 PM,75.2,58.3,56,29.89,10.0,South,6.9,-,N/A,,Clear,180,2013-07-05 04:56:00